sensor_id;sensor_type;location;lat;lon;timestamp;pressure;altitude;pressure_sealevel;temperature;humidity
33635;BME280;19972;54.360;10.076;2022-09-21T00:00:38;104480.59;;;5.60;100.00
33635;BME280;19972;54.360;10.076;2022-09-21T00:03:04;104487.59;;;5.57;100.00
33635;BME280;19972;54.360;10.076;2022-09-21T00:05:31;104493.84;;;5.63;100.00
33635;BME280;19972;54.360;10.076;2022-09-21T00:07:58;104496.47;;;5.63;100.00
33635;BME280;19972;54.360;10.076;2022-09-21T00:10:25;104494.53;;;5.52;100.00
33635;BME280;19972;54.360;10.076;2022-09-21T00:12:51;104511.97;;;5.44;100.00
33635;BME280;19972;54.360;10.076;2022-09-21T00:15:18;104520.81;;;5.49;100.00
33635;BME280;19972;54.360;10.076;2022-09-21T00:17:45;104529.66;;;5.51;100.00
33635;BME280;19972;54.360;10.076;2022-09-21T00:20:13;104541.97;;;5.52;100.00
33635;BME280;19972;54.360;10.076;2022-09-21T00:22:39;104543.59;;;5.44;100.00
33635;BME280;19972;54.360;10.076;2022-09-21T00:25:07;104548.59;;;5.32;100.00
33635;BME280;19972;54.360;10.076;2022-09-21T00:27:34;104558.34;;;5.36;100.00
33635;BME280;19972;54.360;10.076;2022-09-21T00:30:00;104559.16;;;5.32;100.00
33635;BME280;19972;54.360;10.076;2022-09-21T00:32:28;104572.41;;;5.35;100.00
33635;BME280;19972;54.360;10.076;2022-09-21T00:34:56;104578.69;;;5.43;100.00
33635;BME280;19972;54.360;10.076;2022-09-21T00:37:23;104593.63;;;5.43;100.00
33635;BME280;19972;54.360;10.076;2022-09-21T00:39:49;104593.63;;;5.43;100.00
33635;BME280;19972;54.360;10.076;2022-09-21T00:42:17;104597.94;;;5.39;100.00
33635;BME280;19972;54.360;10.076;2022-09-21T00:44:44;104601.41;;;5.38;100.00
33635;BME280;19972;54.360;10.076;2022-09-21T00:47:12;104616.41;;;5.41;100.00
33635;BME280;19972;54.360;10.076;2022-09-21T00:49:40;104619.97;;;5.43;100.00
33635;BME280;19972;54.360;10.076;2022-09-21T00:52:07;104636.66;;;5.43;100.00
33635;BME280;19972;54.360;10.076;2022-09-21T00:54:39;104643.72;;;5.44;100.00
33635;BME280;19972;54.360;10.076;2022-09-21T00:57:06;104650.78;;;5.45;100.00
33635;BME280;19972;54.360;10.076;2022-09-21T00:59:34;104646.97;;;5.31;100.00
33635;BME280;19972;54.360;10.076;2022-09-21T01:02:02;104660.91;;;5.27;100.00
33635;BME280;19972;54.360;10.076;2022-09-21T01:04:29;104660.75;;;5.18;100.00
33635;BME280;19972;54.360;10.076;2022-09-21T01:06:57;104678.41;;;5.22;100.00
33635;BME280;19972;54.360;10.076;2022-09-21T01:09:26;104687.22;;;5.24;100.00
33635;BME280;19972;54.360;10.076;2022-09-21T01:12:01;104701.25;;;5.24;100.00
33635;BME280;19972;54.360;10.076;2022-09-21T01:17:13;104719.72;;;5.26;100.00
33635;BME280;19972;54.360;10.076;2022-09-21T01:19:51;104719.69;;;5.23;100.00
33635;BME280;19972;54.360;10.076;2022-09-21T01:25:12;104740.69;;;5.20;100.00
33635;BME280;19972;54.360;10.076;2022-09-21T01:30:30;104750.16;;;5.12;100.00
33635;BME280;19972;54.360;10.076;2022-09-21T01:33:02;104743.94;;;5.10;100.00
33635;BME280;19972;54.360;10.076;2022-09-21T01:35:41;104731.72;;;5.12;100.00
33635;BME280;19972;54.360;10.076;2022-09-21T01:38:14;104744.06;;;5.14;100.00
33635;BME280;19972;54.360;10.076;2022-09-21T01:40:43;104753.56;;;5.08;100.00
33635;BME280;19972;54.360;10.076;2022-09-21T01:43:17;104753.34;;;4.98;100.00
33635;BME280;19972;54.360;10.076;2022-09-21T01:45:46;104753.28;;;4.95;100.00
33635;BME280;19972;54.360;10.076;2022-09-21T01:48:14;104746.28;;;4.96;100.00
33635;BME280;19972;54.360;10.076;2022-09-21T01:50:44;104732.22;;;4.95;100.00
33635;BME280;19972;54.360;10.076;2022-09-21T01:55:56;104746.44;;;5.03;100.00
33635;BME280;19972;54.360;10.076;2022-09-21T02:00:49;104755.84;;;4.94;100.00
33635;BME280;19972;54.360;10.076;2022-09-21T02:05:54;104781.25;;;4.90;100.00
33635;BME280;19972;54.360;10.076;2022-09-21T02:08:21;104786.28;;;4.81;100.00
33635;BME280;19972;54.360;10.076;2022-09-21T02:10:49;104792.38;;;4.79;100.00
33635;BME280;19972;54.360;10.076;2022-09-21T02:13:16;104809.66;;;4.69;100.00
33635;BME280;19972;54.360;10.076;2022-09-21T02:15:47;104812.38;;;4.72;100.00
33635;BME280;19972;54.360;10.076;2022-09-21T02:20:48;104814.91;;;4.69;100.00
33635;BME280;19972;54.360;10.076;2022-09-21T02:23:22;104821.63;;;4.58;100.00
33635;BME280;19972;54.360;10.076;2022-09-21T02:26:01;104824.91;;;4.49;100.00
33635;BME280;19972;54.360;10.076;2022-09-21T02:31:11;104847.94;;;4.56;100.00
33635;BME280;19972;54.360;10.076;2022-09-21T02:33:44;104866.28;;;4.55;100.00
33635;BME280;19972;54.360;10.076;2022-09-21T02:36:18;104871.66;;;4.58;100.00
33635;BME280;19972;54.360;10.076;2022-09-21T02:38:48;104874.97;;;4.50;100.00
33635;BME280;19972;54.360;10.076;2022-09-21T02:41:40;104885.38;;;4.47;100.00
33635;BME280;19972;54.360;10.076;2022-09-21T02:44:12;104894.13;;;4.46;100.00
33635;BME280;19972;54.360;10.076;2022-09-21T02:46:43;104905.66;;;4.50;100.00
33635;BME280;19972;54.360;10.076;2022-09-21T02:49:13;104905.72;;;4.53;100.00
33635;BME280;19972;54.360;10.076;2022-09-21T02:51:45;104905.53;;;4.45;100.00
33635;BME280;19972;54.360;10.076;2022-09-21T02:54:13;104920.16;;;4.37;100.00
33635;BME280;19972;54.360;10.076;2022-09-21T02:56:42;104930.56;;;4.33;100.00
33635;BME280;19972;54.360;10.076;2022-09-21T02:59:10;104927.03;;;4.32;100.00
33635;BME280;19972;54.360;10.076;2022-09-21T03:01:37;104931.38;;;4.30;100.00
33635;BME280;19972;54.360;10.076;2022-09-21T03:04:04;104932.13;;;4.26;100.00
33635;BME280;19972;54.360;10.076;2022-09-21T03:06:30;104932.22;;;4.29;100.00
33635;BME280;19972;54.360;10.076;2022-09-21T03:08:57;104933.13;;;4.30;100.00
33635;BME280;19972;54.360;10.076;2022-09-21T03:11:23;104939.44;;;4.36;100.00
33635;BME280;19972;54.360;10.076;2022-09-21T03:13:50;104946.34;;;4.33;100.00
33635;BME280;19972;54.360;10.076;2022-09-21T03:16:17;104954.06;;;4.27;100.00
33635;BME280;19972;54.360;10.076;2022-09-21T03:18:43;104959.94;;;4.18;100.00
33635;BME280;19972;54.360;10.076;2022-09-21T03:21:10;104956.72;;;4.00;100.00
33635;BME280;19972;54.360;10.076;2022-09-21T03:23:37;104962.44;;;3.86;100.00
33635;BME280;19972;54.360;10.076;2022-09-21T03:26:04;104969.59;;;3.90;100.00
33635;BME280;19972;54.360;10.076;2022-09-21T03:28:30;104978.22;;;3.86;100.00
33635;BME280;19972;54.360;10.076;2022-09-21T03:30:57;104990.38;;;3.83;100.00
33635;BME280;19972;54.360;10.076;2022-09-21T03:33:23;104993.75;;;3.79;100.00
33635;BME280;19972;54.360;10.076;2022-09-21T03:35:50;105015.03;;;3.86;100.00
33635;BME280;19972;54.360;10.076;2022-09-21T03:38:17;105030.31;;;3.98;100.00
33635;BME280;19972;54.360;10.076;2022-09-21T03:40:44;105051.44;;;4.01;100.00
33635;BME280;19972;54.360;10.076;2022-09-21T03:43:11;105071.59;;;4.01;100.00
33635;BME280;19972;54.360;10.076;2022-09-21T03:45:38;105067.72;;;3.89;100.00
33635;BME280;19972;54.360;10.076;2022-09-21T03:48:06;105074.75;;;3.90;100.00
33635;BME280;19972;54.360;10.076;2022-09-21T03:50:32;105082.66;;;3.90;100.00
33635;BME280;19972;54.360;10.076;2022-09-21T03:52:59;105078.13;;;3.86;100.00
33635;BME280;19972;54.360;10.076;2022-09-21T03:55:25;105094.81;;;3.88;100.00
33635;BME280;19972;54.360;10.076;2022-09-21T03:57:52;105105.41;;;3.90;100.00
33635;BME280;19972;54.360;10.076;2022-09-21T04:00:19;105115.13;;;3.92;100.00
33635;BME280;19972;54.360;10.076;2022-09-21T04:02:45;105122.03;;;3.89;100.00
33635;BME280;19972;54.360;10.076;2022-09-21T04:05:12;105125.34;;;3.83;100.00
33635;BME280;19972;54.360;10.076;2022-09-21T04:07:40;105118.41;;;3.85;100.00
33635;BME280;19972;54.360;10.076;2022-09-21T04:10:08;105148.16;;;3.84;100.00
33635;BME280;19972;54.360;10.076;2022-09-21T04:12:41;105148.00;;;3.80;100.00
33635;BME280;19972;54.360;10.076;2022-09-21T04:15:09;105134.50;;;3.70;100.00
33635;BME280;19972;54.360;10.076;2022-09-21T04:17:36;105131.13;;;3.73;100.00
33635;BME280;19972;54.360;10.076;2022-09-21T04:20:02;105139.72;;;3.69;100.00
33635;BME280;19972;54.360;10.076;2022-09-21T04:22:29;105133.63;;;3.70;100.00
33635;BME280;19972;54.360;10.076;2022-09-21T04:24:56;105145.91;;;3.71;100.00
33635;BME280;19972;54.360;10.076;2022-09-21T04:27:22;105143.59;;;3.79;100.00
33635;BME280;19972;54.360;10.076;2022-09-21T04:29:49;105138.88;;;3.70;100.00
33635;BME280;19972;54.360;10.076;2022-09-21T04:32:16;105148.56;;;3.71;100.00
33635;BME280;19972;54.360;10.076;2022-09-21T04:34:42;105157.31;;;3.71;100.00
33635;BME280;19972;54.360;10.076;2022-09-21T04:37:08;105163.50;;;3.72;100.00
33635;BME280;19972;54.360;10.076;2022-09-21T04:39:36;105170.41;;;3.70;100.00
33635;BME280;19972;54.360;10.076;2022-09-21T04:42:03;105182.72;;;3.71;100.00
33635;BME280;19972;54.360;10.076;2022-09-21T04:44:29;105163.13;;;3.61;100.00
33635;BME280;19972;54.360;10.076;2022-09-21T04:46:56;105180.38;;;3.55;100.00
33635;BME280;19972;54.360;10.076;2022-09-21T04:49:23;105191.63;;;3.51;100.00
33635;BME280;19972;54.360;10.076;2022-09-21T04:51:49;105200.31;;;3.50;100.00
33635;BME280;19972;54.360;10.076;2022-09-21T04:54:16;105202.28;;;3.55;100.00
33635;BME280;19972;54.360;10.076;2022-09-21T04:56:42;105232.34;;;3.62;100.00
33635;BME280;19972;54.360;10.076;2022-09-21T04:59:08;105249.63;;;3.79;100.00
33635;BME280;19972;54.360;10.076;2022-09-21T05:01:35;105261.97;;;3.82;100.00
33635;BME280;19972;54.360;10.076;2022-09-21T05:04:01;105270.75;;;3.82;100.00
33635;BME280;19972;54.360;10.076;2022-09-21T05:06:28;105270.03;;;3.86;100.00
33635;BME280;19972;54.360;10.076;2022-09-21T05:08:55;105288.56;;;3.89;100.00
33635;BME280;19972;54.360;10.076;2022-09-21T05:11:40;105298.72;;;3.80;100.00
33635;BME280;19972;54.360;10.076;2022-09-21T05:14:06;105306.44;;;3.76;100.00
33635;BME280;19972;54.360;10.076;2022-09-21T05:16:33;105310.78;;;3.75;100.00
33635;BME280;19972;54.360;10.076;2022-09-21T05:19:00;105354.41;;;3.70;100.00
33635;BME280;19972;54.360;10.076;2022-09-21T05:21:27;105367.19;;;3.83;100.00
33635;BME280;19972;54.360;10.076;2022-09-21T05:23:53;105382.59;;;3.96;100.00
33635;BME280;19972;54.360;10.076;2022-09-21T05:26:19;105411.97;;;4.09;100.00
33635;BME280;19972;54.360;10.076;2022-09-21T05:28:46;105419.25;;;4.16;100.00
33635;BME280;19972;54.360;10.076;2022-09-21T05:38:46;105410.44;;;4.14;100.00
33635;BME280;19972;54.360;10.076;2022-09-21T05:41:13;105419.34;;;4.17;100.00
33635;BME280;19972;54.360;10.076;2022-09-21T05:43:39;105429.78;;;4.16;100.00
33635;BME280;19972;54.360;10.076;2022-09-21T05:46:12;105447.63;;;4.23;100.00
33635;BME280;19972;54.360;10.076;2022-09-21T05:48:42;105454.84;;;4.29;100.00
33635;BME280;19972;54.360;10.076;2022-09-21T05:54:01;105436.88;;;4.41;100.00
33635;BME280;19972;54.360;10.076;2022-09-21T05:56:34;105381.59;;;4.39;100.00
33635;BME280;19972;54.360;10.076;2022-09-21T06:04:05;105374.75;;;4.70;100.00
33635;BME280;19972;54.360;10.076;2022-09-21T06:06:34;105367.00;;;4.73;100.00
33635;BME280;19972;54.360;10.076;2022-09-21T06:09:01;105385.72;;;4.82;100.00
33635;BME280;19972;54.360;10.076;2022-09-21T06:11:27;105401.97;;;4.94;100.00
33635;BME280;19972;54.360;10.076;2022-09-21T06:13:53;105406.59;;;5.01;100.00
33635;BME280;19972;54.360;10.076;2022-09-21T06:16:20;105429.78;;;5.12;100.00
33635;BME280;19972;54.360;10.076;2022-09-21T06:18:47;105430.75;;;5.15;100.00
33635;BME280;19972;54.360;10.076;2022-09-21T06:21:13;105445.28;;;5.28;100.00
33635;BME280;19972;54.360;10.076;2022-09-21T06:23:39;105457.16;;;5.42;100.00
33635;BME280;19972;54.360;10.076;2022-09-21T06:26:05;105464.72;;;5.59;100.00
33635;BME280;19972;54.360;10.076;2022-09-21T06:28:32;105479.28;;;5.73;100.00
33635;BME280;19972;54.360;10.076;2022-09-21T06:30:58;105490.44;;;5.91;100.00
33635;BME280;19972;54.360;10.076;2022-09-21T06:33:25;105497.13;;;6.08;100.00
33635;BME280;19972;54.360;10.076;2022-09-21T06:38:18;105520.25;;;6.44;100.00
33635;BME280;19972;54.360;10.076;2022-09-21T06:40:44;105535.81;;;6.65;100.00
33635;BME280;19972;54.360;10.076;2022-09-21T06:43:11;105531.88;;;6.81;100.00
33635;BME280;19972;54.360;10.076;2022-09-21T06:45:37;105533.66;;;6.82;100.00
33635;BME280;19972;54.360;10.076;2022-09-21T06:48:03;105535.66;;;6.89;100.00
33635;BME280;19972;54.360;10.076;2022-09-21T06:50:30;105541.09;;;6.95;100.00
33635;BME280;19972;54.360;10.076;2022-09-21T06:52:58;105553.19;;;7.19;100.00
33635;BME280;19972;54.360;10.076;2022-09-21T06:55:24;105565.69;;;7.24;100.00
33635;BME280;19972;54.360;10.076;2022-09-21T06:57:51;105581.97;;;7.39;100.00
33635;BME280;19972;54.360;10.076;2022-09-21T07:00:17;105614.22;;;7.58;100.00
33635;BME280;19972;54.360;10.076;2022-09-21T07:02:43;105637.75;;;7.82;100.00
33635;BME280;19972;54.360;10.076;2022-09-21T07:05:10;105647.16;;;8.04;99.74
33635;BME280;19972;54.360;10.076;2022-09-21T07:07:37;105649.03;;;8.08;99.68
33635;BME280;19972;54.360;10.076;2022-09-21T07:10:04;105664.28;;;8.18;99.17
33635;BME280;19972;54.360;10.076;2022-09-21T07:12:39;105687.97;;;8.45;98.33
33635;BME280;19972;54.360;10.076;2022-09-21T07:15:06;105708.66;;;8.61;97.75
33635;BME280;19972;54.360;10.076;2022-09-21T07:17:33;105715.16;;;8.76;97.39
33635;BME280;19972;54.360;10.076;2022-09-21T07:20:01;105736.81;;;8.94;96.93
33635;BME280;19972;54.360;10.076;2022-09-21T07:22:32;105737.88;;;9.02;96.75
33635;BME280;19972;54.360;10.076;2022-09-21T07:24:58;105751.53;;;9.20;96.25
33635;BME280;19972;54.360;10.076;2022-09-21T07:27:26;105771.09;;;9.25;96.07
33635;BME280;19972;54.360;10.076;2022-09-21T07:29:53;105768.56;;;9.30;95.97
33635;BME280;19972;54.360;10.076;2022-09-21T07:32:19;105770.78;;;9.51;95.64
33635;BME280;19972;54.360;10.076;2022-09-21T07:34:46;105765.53;;;9.54;95.60
33635;BME280;19972;54.360;10.076;2022-09-21T07:37:12;105787.19;;;9.74;95.17
33635;BME280;19972;54.360;10.076;2022-09-21T07:39:39;105800.94;;;9.98;94.84
33635;BME280;19972;54.360;10.076;2022-09-21T07:42:06;105792.47;;;10.16;94.60
33635;BME280;19972;54.360;10.076;2022-09-21T07:44:32;105822.97;;;10.38;94.10
33635;BME280;19972;54.360;10.076;2022-09-21T07:46:59;105836.53;;;10.52;93.76
33635;BME280;19972;54.360;10.076;2022-09-21T07:49:28;105840.28;;;10.63;93.59
33635;BME280;19972;54.360;10.076;2022-09-21T07:51:54;105853.00;;;10.81;93.17
33635;BME280;19972;54.360;10.076;2022-09-21T07:54:28;105814.00;;;10.81;93.35
33635;BME280;19972;54.360;10.076;2022-09-21T07:56:55;105750.97;;;10.76;93.58
33635;BME280;19972;54.360;10.076;2022-09-21T07:59:40;105678.69;;;11.03;93.29
33635;BME280;19972;54.360;10.076;2022-09-21T08:02:06;105584.19;;;11.34;92.97
33635;BME280;19972;54.360;10.076;2022-09-21T08:04:33;105459.25;;;11.51;92.93
33635;BME280;19972;54.360;10.076;2022-09-21T08:06:59;105303.06;;;11.48;92.98
33635;BME280;19972;54.360;10.076;2022-09-21T08:09:26;105160.28;;;11.56;93.03
33635;BME280;19972;54.360;10.076;2022-09-21T08:11:52;105074.25;;;11.86;93.40
33635;BME280;19972;54.360;10.076;2022-09-21T08:14:20;104981.06;;;11.85;93.91
33635;BME280;19972;54.360;10.076;2022-09-21T08:16:51;104891.41;;;11.82;94.68
33635;BME280;19972;54.360;10.076;2022-09-21T08:19:18;104831.00;;;11.97;95.14
33635;BME280;19972;54.360;10.076;2022-09-21T08:21:46;104770.59;;;12.03;95.66
33635;BME280;19972;54.360;10.076;2022-09-21T08:24:19;104726.16;;;12.13;96.43
33635;BME280;19972;54.360;10.076;2022-09-21T08:26:45;104693.88;;;12.53;96.54
33635;BME280;19972;54.360;10.076;2022-09-21T08:29:11;104642.91;;;12.85;97.42
33635;BME280;19972;54.360;10.076;2022-09-21T08:31:41;104604.69;;;12.84;98.50
33635;BME280;19972;54.360;10.076;2022-09-21T08:34:08;104569.09;;;12.85;99.42
33635;BME280;19972;54.360;10.076;2022-09-21T08:36:34;104539.09;;;12.68;100.00
33635;BME280;19972;54.360;10.076;2022-09-21T08:39:01;104533.41;;;12.95;100.00
33635;BME280;19972;54.360;10.076;2022-09-21T08:44:13;104490.66;;;13.02;100.00
33635;BME280;19972;54.360;10.076;2022-09-21T08:46:41;104473.56;;;13.16;100.00
33635;BME280;19972;54.360;10.076;2022-09-21T08:49:14;104442.41;;;13.15;100.00
33635;BME280;19972;54.360;10.076;2022-09-21T08:52:03;104410.91;;;13.40;100.00
33635;BME280;19972;54.360;10.076;2022-09-21T08:57:13;104324.84;;;13.74;100.00
33635;BME280;19972;54.360;10.076;2022-09-21T08:59:42;104278.06;;;13.98;100.00
33635;BME280;19972;54.360;10.076;2022-09-21T09:09:59;103971.16;;;13.86;100.00
33635;BME280;19972;54.360;10.076;2022-09-21T09:17:40;103727.25;;;13.56;100.00
33635;BME280;19972;54.360;10.076;2022-09-21T09:20:26;103671.28;;;13.53;100.00
33635;BME280;19972;54.360;10.076;2022-09-21T09:23:15;103610.00;;;13.50;100.00
33635;BME280;19972;54.360;10.076;2022-09-21T09:25:45;103550.25;;;13.54;100.00
33635;BME280;19972;54.360;10.076;2022-09-21T09:28:29;103507.28;;;13.88;100.00
33635;BME280;19972;54.360;10.076;2022-09-21T09:30:59;103447.66;;;13.87;100.00
33635;BME280;19972;54.360;10.076;2022-09-21T09:33:45;103396.91;;;13.89;100.00
33635;BME280;19972;54.360;10.076;2022-09-21T09:36:14;103325.78;;;14.10;100.00
33635;BME280;19972;54.360;10.076;2022-09-21T09:38:51;103293.16;;;14.02;100.00
33635;BME280;19972;54.360;10.076;2022-09-21T09:41:29;103254.97;;;13.99;100.00
33635;BME280;19972;54.360;10.076;2022-09-21T09:51:44;103093.56;;;14.27;100.00
33635;BME280;19972;54.360;10.076;2022-09-21T09:54:13;103082.69;;;14.10;100.00
33635;BME280;19972;54.360;10.076;2022-09-21T09:56:40;103072.03;;;14.72;100.00
33635;BME280;19972;54.360;10.076;2022-09-21T09:59:10;103045.13;;;14.96;100.00
33635;BME280;19972;54.360;10.076;2022-09-21T10:01:40;103016.69;;;14.93;100.00
33635;BME280;19972;54.360;10.076;2022-09-21T10:04:12;103011.53;;;14.70;100.00
33635;BME280;19972;54.360;10.076;2022-09-21T10:06:39;102998.91;;;14.73;100.00
33635;BME280;19972;54.360;10.076;2022-09-21T10:09:30;102982.50;;;14.81;100.00
33635;BME280;19972;54.360;10.076;2022-09-21T10:11:59;102971.31;;;14.73;100.00
33635;BME280;19972;54.360;10.076;2022-09-21T10:14:26;102959.28;;;14.63;100.00
33635;BME280;19972;54.360;10.076;2022-09-21T10:16:54;102953.00;;;14.64;100.00
33635;BME280;19972;54.360;10.076;2022-09-21T10:19:24;102951.88;;;14.88;100.00
33635;BME280;19972;54.360;10.076;2022-09-21T10:21:55;102926.56;;;14.76;100.00
33635;BME280;19972;54.360;10.076;2022-09-21T10:24:33;102918.28;;;14.83;100.00
33635;BME280;19972;54.360;10.076;2022-09-21T10:27:11;102916.47;;;14.83;100.00
33635;BME280;19972;54.360;10.076;2022-09-21T10:29:42;102899.13;;;14.73;100.00
33635;BME280;19972;54.360;10.076;2022-09-21T10:34:40;102891.19;;;15.63;100.00
33635;BME280;19972;54.360;10.076;2022-09-21T10:37:25;102882.47;;;15.57;100.00
33635;BME280;19972;54.360;10.076;2022-09-21T10:39:52;102872.50;;;15.96;100.00
33635;BME280;19972;54.360;10.076;2022-09-21T10:42:18;102865.84;;;16.85;100.00
33635;BME280;19972;54.360;10.076;2022-09-21T10:44:52;102846.88;;;17.80;100.00
33635;BME280;19972;54.360;10.076;2022-09-21T10:47:39;102835.00;;;18.41;100.00
33635;BME280;19972;54.360;10.076;2022-09-21T10:50:19;102845.19;;;18.36;100.00
33635;BME280;19972;54.360;10.076;2022-09-21T10:52:47;102795.34;;;20.53;100.00
33635;BME280;19972;54.360;10.076;2022-09-21T10:55:14;102733.22;;;19.80;100.00
33635;BME280;19972;54.360;10.076;2022-09-21T10:57:42;102654.44;;;20.96;100.00
33635;BME280;19972;54.360;10.076;2022-09-21T11:02:51;102423.84;;;22.06;100.00
33635;BME280;19972;54.360;10.076;2022-09-21T11:05:24;102346.53;;;23.34;100.00
33635;BME280;19972;54.360;10.076;2022-09-21T11:07:54;102242.81;;;23.41;100.00
33635;BME280;19972;54.360;10.076;2022-09-21T11:10:26;102291.56;;;21.72;100.00
33635;BME280;19972;54.360;10.076;2022-09-21T11:13:08;102239.59;;;21.69;100.00
33635;BME280;19972;54.360;10.076;2022-09-21T11:57:12;101905.44;;;24.25;100.00
33635;BME280;19972;54.360;10.076;2022-09-21T12:02:25;101795.91;;;24.68;100.00
33635;BME280;19972;54.360;10.076;2022-09-21T12:04:57;101847.81;;;23.43;100.00
33635;BME280;19972;54.360;10.076;2022-09-21T12:07:38;101783.53;;;25.33;100.00
33635;BME280;19972;54.360;10.076;2022-09-21T12:10:32;101811.56;;;27.85;100.00
33635;BME280;19972;54.360;10.076;2022-09-21T12:12:56;101653.81;;;27.66;100.00
33635;BME280;19972;54.360;10.076;2022-09-21T12:17:57;101594.88;;;28.58;100.00
33635;BME280;19972;54.360;10.076;2022-09-21T12:23:03;101512.41;;;29.87;100.00
33635;BME280;19972;54.360;10.076;2022-09-21T12:25:32;101562.06;;;27.94;100.00
33635;BME280;19972;54.360;10.076;2022-09-21T12:28:03;101570.69;;;27.98;100.00
33635;BME280;19972;54.360;10.076;2022-09-21T12:30:32;101582.16;;;28.44;100.00
33635;BME280;19972;54.360;10.076;2022-09-21T12:35:42;101700.09;;;28.03;100.00
33635;BME280;19972;54.360;10.076;2022-09-21T12:40:51;101679.00;;;27.38;100.00
33635;BME280;19972;54.360;10.076;2022-09-21T12:46:04;101648.53;;;27.49;100.00
33635;BME280;19972;54.360;10.076;2022-09-21T12:48:33;101612.69;;;28.76;100.00
33635;BME280;19972;54.360;10.076;2022-09-21T12:53:46;101558.03;;;30.21;100.00
33635;BME280;19972;54.360;10.076;2022-09-21T12:56:21;101511.38;;;29.40;100.00
33635;BME280;19972;54.360;10.076;2022-09-21T12:58:56;101657.22;;;26.07;100.00
33635;BME280;19972;54.360;10.076;2022-09-21T13:01:32;101564.66;;;28.60;100.00
33635;BME280;19972;54.360;10.076;2022-09-21T13:04:03;101386.28;;;30.35;100.00
33635;BME280;19972;54.360;10.076;2022-09-21T13:09:20;101458.72;;;28.12;100.00
33635;BME280;19972;54.360;10.076;2022-09-21T13:12:06;101604.47;;;26.39;100.00
33635;BME280;19972;54.360;10.076;2022-09-21T13:14:35;101663.19;;;26.11;100.00
33635;BME280;19972;54.360;10.076;2022-09-21T13:17:06;101755.34;;;26.14;100.00
33635;BME280;19972;54.360;10.076;2022-09-21T13:19:42;101648.47;;;27.20;100.00
33635;BME280;19972;54.360;10.076;2022-09-21T13:24:38;101618.41;;;27.87;100.00
33635;BME280;19972;54.360;10.076;2022-09-21T13:27:07;101696.44;;;25.73;100.00
33635;BME280;19972;54.360;10.076;2022-09-21T13:29:34;101614.84;;;28.01;100.00
33635;BME280;19972;54.360;10.076;2022-09-21T13:47:40;101385.41;;;29.55;100.00
33635;BME280;19972;54.360;10.076;2022-09-21T13:53:02;101390.28;;;30.06;100.00
33635;BME280;19972;54.360;10.076;2022-09-21T13:55:32;101278.44;;;32.44;100.00
33635;BME280;19972;54.360;10.076;2022-09-21T13:58:02;101224.88;;;32.28;100.00
33635;BME280;19972;54.360;10.076;2022-09-21T14:00:31;101089.41;;;34.10;100.00
33635;BME280;19972;54.360;10.076;2022-09-21T14:02:59;101083.00;;;33.93;100.00
33635;BME280;19972;54.360;10.076;2022-09-21T14:08:05;101599.38;;;26.44;100.00
33635;BME280;19972;54.360;10.076;2022-09-21T14:10:34;101825.34;;;24.89;100.00
33635;BME280;19972;54.360;10.076;2022-09-21T14:13:03;101886.66;;;23.34;100.00
33635;BME280;19972;54.360;10.076;2022-09-21T14:15:34;101965.53;;;23.04;100.00
33635;BME280;19972;54.360;10.076;2022-09-21T14:20:33;102073.03;;;21.77;100.00
33635;BME280;19972;54.360;10.076;2022-09-21T14:25:51;102155.25;;;21.23;100.00
33635;BME280;19972;54.360;10.076;2022-09-21T14:28:21;102173.44;;;21.21;100.00
33635;BME280;19972;54.360;10.076;2022-09-21T14:30:55;102260.94;;;20.98;100.00
33635;BME280;19972;54.360;10.076;2022-09-21T14:33:42;102206.50;;;20.61;100.00
33635;BME280;19972;54.360;10.076;2022-09-21T14:36:10;102239.97;;;20.36;100.00
33635;BME280;19972;54.360;10.076;2022-09-21T14:38:58;102299.31;;;19.91;100.00
33635;BME280;19972;54.360;10.076;2022-09-21T14:41:29;102344.16;;;19.92;100.00
33635;BME280;19972;54.360;10.076;2022-09-21T14:43:57;102366.66;;;19.68;100.00
33635;BME280;19972;54.360;10.076;2022-09-21T15:00:05;102477.44;;;19.40;100.00
33635;BME280;19972;54.360;10.076;2022-09-21T15:02:39;102468.50;;;19.39;100.00
33635;BME280;19972;54.360;10.076;2022-09-21T15:13:30;102619.44;;;17.64;100.00
33635;BME280;19972;54.360;10.076;2022-09-21T15:16:05;102631.56;;;17.29;100.00
33635;BME280;19972;54.360;10.076;2022-09-21T15:18:41;102663.53;;;17.03;100.00
33635;BME280;19972;54.360;10.076;2022-09-21T15:21:17;102674.78;;;16.80;100.00
33635;BME280;19972;54.360;10.076;2022-09-21T15:23:44;102667.09;;;16.58;100.00
33635;BME280;19972;54.360;10.076;2022-09-21T15:26:29;102660.06;;;16.25;100.00
33635;BME280;19972;54.360;10.076;2022-09-21T15:29:02;102649.75;;;16.49;100.00
33635;BME280;19972;54.360;10.076;2022-09-21T15:31:36;102648.78;;;16.50;100.00
33635;BME280;19972;54.360;10.076;2022-09-21T15:34:07;102636.44;;;16.32;100.00
33635;BME280;19972;54.360;10.076;2022-09-21T15:36:38;102639.31;;;15.97;100.00
33635;BME280;19972;54.360;10.076;2022-09-21T15:39:04;102632.09;;;15.99;100.00
33635;BME280;19972;54.360;10.076;2022-09-21T15:41:39;102627.50;;;16.01;100.00
33635;BME280;19972;54.360;10.076;2022-09-21T15:44:14;102609.97;;;15.96;100.00
33635;BME280;19972;54.360;10.076;2022-09-21T15:46:42;102602.28;;;16.05;100.00
33635;BME280;19972;54.360;10.076;2022-09-21T15:49:16;102585.38;;;16.19;100.00
33635;BME280;19972;54.360;10.076;2022-09-21T15:54:42;102589.75;;;15.90;100.00
33635;BME280;19972;54.360;10.076;2022-09-21T15:57:23;102590.50;;;15.76;100.00